sensor_id;sensor_type;location;lat;lon;timestamp;temperature;humidity
20985;DHT22;10651;47.552;7.606;2023-11-21T18:08:56;11.00;99.90
20985;DHT22;10651;47.552;7.606;2023-11-21T18:11:25;10.80;99.90
20985;DHT22;10651;47.552;7.606;2023-11-21T18:13:51;10.80;99.90
20985;DHT22;10651;47.552;7.606;2023-11-21T18:16:17;10.70;99.90
20985;DHT22;10651;47.552;7.606;2023-11-21T18:18:42;10.60;99.90
20985;DHT22;10651;47.552;7.606;2023-11-21T18:21:08;10.50;99.90
20985;DHT22;10651;47.552;7.606;2023-11-21T18:23:34;10.50;99.90
20985;DHT22;10651;47.552;7.606;2023-11-21T18:26:00;10.50;99.90
20985;DHT22;10651;47.552;7.606;2023-11-21T18:28:25;10.50;99.90
20985;DHT22;10651;47.552;7.606;2023-11-21T18:30:51;10.50;99.90
20985;DHT22;10651;47.552;7.606;2023-11-21T18:33:17;10.50;99.90
20985;DHT22;10651;47.552;7.606;2023-11-21T18:35:53;10.50;99.90
20985;DHT22;10651;47.552;7.606;2023-11-21T18:38:19;10.50;99.90
20985;DHT22;10651;47.552;7.606;2023-11-21T18:40:44;10.60;99.90
20985;DHT22;10651;47.552;7.606;2023-11-21T18:43:10;10.60;99.90
20985;DHT22;10651;47.552;7.606;2023-11-21T18:45:37;10.40;99.90
20985;DHT22;10651;47.552;7.606;2023-11-21T18:48:03;10.50;99.90
20985;DHT22;10651;47.552;7.606;2023-11-21T18:50:29;10.40;99.90
20985;DHT22;10651;47.552;7.606;2023-11-21T18:52:55;10.40;99.90
20985;DHT22;10651;47.552;7.606;2023-11-21T18:55:20;10.50;99.90
20985;DHT22;10651;47.552;7.606;2023-11-21T18:57:46;10.40;99.90
20985;DHT22;10651;47.552;7.606;2023-11-21T19:00:12;10.40;99.90
20985;DHT22;10651;47.552;7.606;2023-11-21T19:02:39;10.50;99.90
20985;DHT22;10651;47.552;7.606;2023-11-21T19:05:05;10.40;99.90
20985;DHT22;10651;47.552;7.606;2023-11-21T19:07:32;10.30;99.90
20985;DHT22;10651;47.552;7.606;2023-11-21T19:10:05;10.30;99.90
20985;DHT22;10651;47.552;7.606;2023-11-21T19:12:34;10.30;99.90
20985;DHT22;10651;47.552;7.606;2023-11-21T19:15:08;10.30;99.90
20985;DHT22;10651;47.552;7.606;2023-11-21T19:17:35;10.20;99.90
20985;DHT22;10651;47.552;7.606;2023-11-21T19:20:01;10.30;99.90
20985;DHT22;10651;47.552;7.606;2023-11-21T19:22:27;10.30;99.90
20985;DHT22;10651;47.552;7.606;2023-11-21T19:24:53;10.30;99.90
20985;DHT22;10651;47.552;7.606;2023-11-21T19:27:18;10.30;99.90
20985;DHT22;10651;47.552;7.606;2023-11-21T19:29:45;10.30;99.90
20985;DHT22;10651;47.552;7.606;2023-11-21T19:32:11;10.30;99.90
20985;DHT22;10651;47.552;7.606;2023-11-21T19:34:37;10.30;99.90
20985;DHT22;10651;47.552;7.606;2023-11-21T19:37:03;10.40;99.90
20985;DHT22;10651;47.552;7.606;2023-11-21T19:39:29;10.50;99.90
20985;DHT22;10651;47.552;7.606;2023-11-21T19:41:55;10.50;99.90
20985;DHT22;10651;47.552;7.606;2023-11-21T19:44:20;10.40;99.90
20985;DHT22;10651;47.552;7.606;2023-11-21T19:46:47;10.40;99.90
20985;DHT22;10651;47.552;7.606;2023-11-21T19:49:13;10.30;99.90
20985;DHT22;10651;47.552;7.606;2023-11-21T19:51:39;10.30;99.90
20985;DHT22;10651;47.552;7.606;2023-11-21T19:54:05;10.30;99.90
20985;DHT22;10651;47.552;7.606;2023-11-21T19:56:30;10.30;99.90
20985;DHT22;10651;47.552;7.606;2023-11-21T19:58:56;10.30;99.90
20985;DHT22;10651;47.552;7.606;2023-11-21T20:01:22;10.40;99.90
20985;DHT22;10651;47.552;7.606;2023-11-21T20:03:48;10.30;99.90
20985;DHT22;10651;47.552;7.606;2023-11-21T20:06:13;10.20;99.90
20985;DHT22;10651;47.552;7.606;2023-11-21T20:08:39;10.30;99.90
20985;DHT22;10651;47.552;7.606;2023-11-21T20:11:05;10.20;99.90
20985;DHT22;10651;47.552;7.606;2023-11-21T20:13:31;10.20;99.90
20985;DHT22;10651;47.552;7.606;2023-11-21T20:15:57;10.30;99.90
20985;DHT22;10651;47.552;7.606;2023-11-21T20:18:23;10.30;99.90
20985;DHT22;10651;47.552;7.606;2023-11-21T20:20:49;10.30;99.90
20985;DHT22;10651;47.552;7.606;2023-11-21T20:23:15;10.30;99.90
20985;DHT22;10651;47.552;7.606;2023-11-21T20:25:43;10.40;99.90
20985;DHT22;10651;47.552;7.606;2023-11-21T20:28:09;10.40;99.90
20985;DHT22;10651;47.552;7.606;2023-11-21T20:30:35;10.40;99.90
20985;DHT22;10651;47.552;7.606;2023-11-21T20:33:00;10.30;99.90
20985;DHT22;10651;47.552;7.606;2023-11-21T20:35:31;10.30;99.90
20985;DHT22;10651;47.552;7.606;2023-11-21T20:38:02;10.20;99.90
20985;DHT22;10651;47.552;7.606;2023-11-21T20:40:29;10.20;99.90
20985;DHT22;10651;47.552;7.606;2023-11-21T20:42:58;10.20;99.90
20985;DHT22;10651;47.552;7.606;2023-11-21T20:45:29;10.20;99.90
20985;DHT22;10651;47.552;7.606;2023-11-21T20:47:55;10.20;99.90
20985;DHT22;10651;47.552;7.606;2023-11-21T20:50:21;10.30;99.90
20985;DHT22;10651;47.552;7.606;2023-11-21T20:52:48;10.40;99.90
20985;DHT22;10651;47.552;7.606;2023-11-21T20:55:15;10.30;99.90
20985;DHT22;10651;47.552;7.606;2023-11-21T20:57:41;10.30;99.90
20985;DHT22;10651;47.552;7.606;2023-11-21T21:00:07;10.30;99.90
20985;DHT22;10651;47.552;7.606;2023-11-21T21:02:40;10.30;99.90
20985;DHT22;10651;47.552;7.606;2023-11-21T21:05:06;10.30;99.90
20985;DHT22;10651;47.552;7.606;2023-11-21T21:07:34;10.30;99.90
20985;DHT22;10651;47.552;7.606;2023-11-21T21:10:00;10.20;99.90
20985;DHT22;10651;47.552;7.606;2023-11-21T21:12:27;10.20;99.90
20985;DHT22;10651;47.552;7.606;2023-11-21T21:14:55;10.20;99.90
20985;DHT22;10651;47.552;7.606;2023-11-21T21:17:21;10.10;99.90
20985;DHT22;10651;47.552;7.606;2023-11-21T21:19:49;10.00;99.90
20985;DHT22;10651;47.552;7.606;2023-11-21T21:22:15;10.00;99.90
20985;DHT22;10651;47.552;7.606;2023-11-21T21:24:41;10.10;99.90
20985;DHT22;10651;47.552;7.606;2023-11-21T21:27:07;10.10;99.90
20985;DHT22;10651;47.552;7.606;2023-11-21T21:29:32;10.10;99.90
20985;DHT22;10651;47.552;7.606;2023-11-21T21:31:58;10.10;99.90
20985;DHT22;10651;47.552;7.606;2023-11-21T21:34:24;10.00;99.90
20985;DHT22;10651;47.552;7.606;2023-11-21T21:36:51;10.00;99.90
20985;DHT22;10651;47.552;7.606;2023-11-21T21:39:16;10.00;99.90
20985;DHT22;10651;47.552;7.606;2023-11-21T21:41:45;10.00;99.90
20985;DHT22;10651;47.552;7.606;2023-11-21T21:44:11;10.10;99.90
20985;DHT22;10651;47.552;7.606;2023-11-21T21:46:36;10.10;99.90
20985;DHT22;10651;47.552;7.606;2023-11-21T21:49:02;10.00;99.90
20985;DHT22;10651;47.552;7.606;2023-11-21T21:51:29;10.10;99.90
20985;DHT22;10651;47.552;7.606;2023-11-21T21:53:56;10.10;99.90
20985;DHT22;10651;47.552;7.606;2023-11-21T21:56:22;10.10;99.90
20985;DHT22;10651;47.552;7.606;2023-11-21T21:58:48;10.10;99.90
20985;DHT22;10651;47.552;7.606;2023-11-21T22:01:18;10.10;99.90
20985;DHT22;10651;47.552;7.606;2023-11-21T22:03:44;10.20;99.90
20985;DHT22;10651;47.552;7.606;2023-11-21T22:06:10;10.20;99.90
20985;DHT22;10651;47.552;7.606;2023-11-21T22:08:38;10.20;99.90
20985;DHT22;10651;47.552;7.606;2023-11-21T22:11:03;10.10;99.90
20985;DHT22;10651;47.552;7.606;2023-11-21T22:13:30;10.20;99.90
20985;DHT22;10651;47.552;7.606;2023-11-21T22:15:55;10.20;99.90
20985;DHT22;10651;47.552;7.606;2023-11-21T22:18:21;10.20;99.90
20985;DHT22;10651;47.552;7.606;2023-11-21T22:20:47;10.20;99.90
20985;DHT22;10651;47.552;7.606;2023-11-21T22:23:13;10.20;99.90
20985;DHT22;10651;47.552;7.606;2023-11-21T22:25:38;10.20;99.90
20985;DHT22;10651;47.552;7.606;2023-11-21T22:28:07;10.20;99.90
20985;DHT22;10651;47.552;7.606;2023-11-21T22:30:33;10.20;99.90
20985;DHT22;10651;47.552;7.606;2023-11-21T22:32:59;10.20;99.90
